createdAt,value
2023-08-11T00:02:57.201Z,76.87
2023-08-11T00:06:00.692Z,77.02
2023-08-11T00:09:08.659Z,76.36
2023-08-11T00:12:12.461Z,76.96
2023-08-11T00:15:18.010Z,77.07
2023-08-11T00:18:21.724Z,77.59
2023-08-11T00:21:26.075Z,76.41
2023-08-11T00:24:29.451Z,78.51
2023-08-11T00:27:32.816Z,79.86
2023-08-11T00:30:38.127Z,79.54
2023-08-11T00:33:47.707Z,79.85
2023-08-11T00:36:51.463Z,79.53
2023-08-11T00:39:54.816Z,79.50
2023-08-11T00:42:58.236Z,78.71
2023-08-11T00:46:11.840Z,79.35
2023-08-11T00:49:16.664Z,78.06
2023-08-11T00:52:21.541Z,78.58
2023-08-11T00:55:25.046Z,77.36
2023-08-11T00:58:30.635Z,77.69
2023-08-11T01:01:36.856Z,77.73
2023-08-11T01:04:41.201Z,77.52
2023-08-11T01:07:56.024Z,78.40
2023-08-11T01:11:08.917Z,78.76
2023-08-11T01:14:19.998Z,79.66
2023-08-11T01:17:27.011Z,79.55
2023-08-11T01:20:31.043Z,80.16
2023-08-11T01:23:36.658Z,80.23
2023-08-11T01:26:40.266Z,79.89
2023-08-11T01:29:44.079Z,81.24
2023-08-11T01:32:47.502Z,79.91
2023-08-11T01:35:50.996Z,80.52
2023-08-11T01:38:55.682Z,79.90
2023-08-11T01:41:59.807Z,78.40
2023-08-11T01:45:03.752Z,77.32
2023-08-11T01:48:08.559Z,76.64
2023-08-11T01:51:12.259Z,75.70
2023-08-11T01:54:17.568Z,77.09
2023-08-11T01:57:21.788Z,78.08
2023-08-11T02:00:25.165Z,79.09
2023-08-11T02:03:28.861Z,76.50
2023-08-11T02:06:32.484Z,76.98
2023-08-11T02:09:37.512Z,77.30
2023-08-11T02:12:41.552Z,78.35
2023-08-11T02:15:45.735Z,77.49
2023-08-11T02:18:49.077Z,77.09
2023-08-11T02:21:52.668Z,77.01
2023-08-11T02:24:57.448Z,78.50
2023-08-11T02:28:00.857Z,78.36
2023-08-11T02:31:04.616Z,77.79
2023-08-11T02:34:07.925Z,76.69
2023-08-11T02:37:11.185Z,75.82
2023-08-11T02:40:16.836Z,76.79
2023-08-11T02:43:20.305Z,77.49
2023-08-11T02:46:24.779Z,78.03
2023-08-11T02:49:28.835Z,78.41
2023-08-11T02:52:32.315Z,77.66
2023-08-11T02:55:37.120Z,78.78
2023-08-11T02:58:40.557Z,79.76
2023-08-11T03:01:44.222Z,79.91
2023-08-11T03:04:48.569Z,77.39
2023-08-11T03:07:52.622Z,76.84
2023-08-11T03:10:57.691Z,77.25
2023-08-11T03:14:08.015Z,77.84
2023-08-11T03:17:14.816Z,77.94
2023-08-11T03:20:19.379Z,77.77
2023-08-11T03:23:24.236Z,78.43
2023-08-11T03:26:30.527Z,79.08
2023-08-11T03:29:34.556Z,80.10
2023-08-11T03:32:38.067Z,79.44
2023-08-11T03:35:42.733Z,79.29
2023-08-11T03:38:47.421Z,77.42
2023-08-11T03:41:53.431Z,78.57
2023-08-11T03:44:57.787Z,78.56
2023-08-11T03:48:03.198Z,78.93
2023-08-11T03:51:06.684Z,79.43
2023-08-11T03:54:11.840Z,79.12
2023-08-11T03:57:17.007Z,80.40
2023-08-11T04:00:21.542Z,78.45
2023-08-11T04:03:44.254Z,77.39
2023-08-11T04:06:47.842Z,76.37
2023-08-11T04:09:51.477Z,77.13
2023-08-11T04:12:56.369Z,76.58
2023-08-11T04:16:01.818Z,78.15
2023-08-11T04:19:06.220Z,78.34
2023-08-11T04:22:09.973Z,77.58
2023-08-11T04:25:15.047Z,76.86
2023-08-11T04:28:23.320Z,76.67
2023-08-11T04:31:28.272Z,77.79
2023-08-11T04:34:31.964Z,76.63
2023-08-11T04:37:36.561Z,78.51
2023-08-11T04:40:40.581Z,78.11
2023-08-11T04:43:45.709Z,78.12
2023-08-11T04:46:50.186Z,78.75
2023-08-11T04:49:55.208Z,79.03
2023-08-11T04:52:58.666Z,79.45
2023-08-11T04:56:02.376Z,79.31
2023-08-11T05:00:56.837Z,78.97
2023-08-11T05:04:00.473Z,78.79
2023-08-11T05:07:04.522Z,76.95
2023-08-11T05:10:08.972Z,76.85
2023-08-11T05:13:12.433Z,76.62
2023-08-11T05:16:17.775Z,76.25
2023-08-11T05:19:21.491Z,76.20
2023-08-11T05:22:24.861Z,76.50
2023-08-11T05:25:28.365Z,76.70
2023-08-11T05:28:31.724Z,76.80
2023-08-11T05:31:36.582Z,76.23
2023-08-11T05:34:39.968Z,75.89
2023-08-11T05:37:44.738Z,75.71
2023-08-11T05:40:48.324Z,75.29
2023-08-11T05:43:51.684Z,74.27
2023-08-11T05:46:56.703Z,74.82
2023-08-11T05:50:00.212Z,73.54
2023-08-11T05:53:03.566Z,72.92
2023-08-11T05:56:06.926Z,72.92
2023-08-11T05:59:10.265Z,72.80
2023-08-11T06:02:15.026Z,72.45
2023-08-11T06:05:22.891Z,70.71
2023-08-11T06:08:26.442Z,69.85
2023-08-11T06:11:29.943Z,69.11
2023-08-11T06:14:33.352Z,68.88
2023-08-11T06:17:38.555Z,68.13
2023-08-11T06:20:42.600Z,67.25
2023-08-11T06:23:46.174Z,65.16
2023-08-11T06:26:49.989Z,64.15
2023-08-11T06:29:53.499Z,65.69
2023-08-11T06:32:58.346Z,65.92
2023-08-11T06:36:01.737Z,65.73
2023-08-11T06:39:05.532Z,64.81
2023-08-11T06:42:09.319Z,63.11
2023-08-11T06:45:26.281Z,63.04
2023-08-11T06:48:31.090Z,61.84
2023-08-11T06:51:38.426Z,60.72
2023-08-11T06:54:42.046Z,59.86
2023-08-11T06:57:45.492Z,59.91
2023-08-11T07:00:49.217Z,59.61
2023-08-11T07:03:54.280Z,59.10
2023-08-11T07:06:57.896Z,58.84
2023-08-11T07:10:04.115Z,57.88
2023-08-11T07:13:07.793Z,58.36
2023-08-11T07:16:11.080Z,56.90
2023-08-11T07:19:15.986Z,57.57
2023-08-11T07:22:19.740Z,54.48
2023-08-11T07:25:23.488Z,54.14
2023-08-11T07:28:27.015Z,52.44
2023-08-11T07:31:30.561Z,52.19
2023-08-11T07:34:36.237Z,52.72
2023-08-11T07:37:39.853Z,50.91
2023-08-11T07:40:43.253Z,53.28
2023-08-11T07:43:46.638Z,51.86
2023-08-11T07:46:50.000Z,50.20
2023-08-11T07:49:56.939Z,43.38
2023-08-11T07:53:01.344Z,45.37
2023-08-11T07:56:06.199Z,44.84
2023-08-11T07:59:09.580Z,44.94
2023-08-11T08:02:15.668Z,44.08
2023-08-11T08:05:20.975Z,42.81
2023-08-11T08:08:26.083Z,43.80
2023-08-11T08:11:29.581Z,42.99
2023-08-11T08:14:32.970Z,41.73
2023-08-11T08:17:36.912Z,41.20
2023-08-11T08:20:43.105Z,41.36
2023-08-11T08:23:50.889Z,40.39
2023-08-11T08:26:54.526Z,41.41
2023-08-11T08:29:58.520Z,42.58
2023-08-11T08:33:01.959Z,40.75
2023-08-11T08:36:08.262Z,41.02
2023-08-11T08:41:29.213Z,39.02
2023-08-11T08:44:36.822Z,39.87
2023-08-11T08:47:42.226Z,37.23
2023-08-11T08:50:46.185Z,36.85
2023-08-11T08:53:53.036Z,39.17
2023-08-11T08:57:00.019Z,38.58
2023-08-11T09:00:06.406Z,37.98
2023-08-11T09:03:10.321Z,37.01
2023-08-11T09:06:15.012Z,33.63
2023-08-11T09:09:18.371Z,36.82
2023-08-11T09:12:25.303Z,36.20
2023-08-11T09:15:34.018Z,36.76
2023-08-11T09:18:38.759Z,37.11
2023-08-11T09:21:43.750Z,35.87
2023-08-11T09:24:48.232Z,36.57
2023-08-11T09:27:53.704Z,35.38
2023-08-11T09:30:57.472Z,35.54
2023-08-11T09:34:14.001Z,34.27
2023-08-11T09:37:17.619Z,35.29
2023-08-11T09:40:21.221Z,35.98
2023-08-11T09:43:26.228Z,36.30
2023-08-11T09:46:33.261Z,36.22
2023-08-11T09:49:37.416Z,34.30
2023-08-11T09:52:42.303Z,34.99
2023-08-11T09:55:47.125Z,34.57
2023-08-11T09:58:56.858Z,33.63
2023-08-11T10:02:04.240Z,33.60
2023-08-11T10:05:12.055Z,34.30
2023-08-11T10:08:20.618Z,35.45
2023-08-11T10:11:29.482Z,35.25
2023-08-11T10:14:35.793Z,35.79
2023-08-11T10:17:40.326Z,36.22
2023-08-11T10:20:45.036Z,33.23
2023-08-11T10:23:49.863Z,32.42
2023-08-11T10:26:54.582Z,33.30
2023-08-11T10:30:00.800Z,34.92
2023-08-11T10:33:10.828Z,34.22
2023-08-11T10:36:18.422Z,34.28
2023-08-11T10:39:23.132Z,36.15
2023-08-11T10:42:26.879Z,34.54
2023-08-11T10:45:34.206Z,34.92
2023-08-11T10:48:37.716Z,33.98
2023-08-11T10:51:42.369Z,34.07
2023-08-11T10:54:52.012Z,34.66
2023-08-11T10:58:14.159Z,35.45
2023-08-11T11:01:20.942Z,33.45
2023-08-11T11:04:29.926Z,33.95
2023-08-11T11:07:40.047Z,33.08
2023-08-11T11:10:49.066Z,31.99
2023-08-11T11:13:55.027Z,32.86
2023-08-11T11:17:03.473Z,32.44
2023-08-11T11:20:08.737Z,31.71
2023-08-11T11:23:12.157Z,31.18
2023-08-11T11:26:18.646Z,31.80
2023-08-11T11:29:25.107Z,31.16
2023-08-11T11:32:30.897Z,29.63
2023-08-11T11:35:34.794Z,29.82
2023-08-11T11:38:39.637Z,31.47
2023-08-11T11:41:43.437Z,32.42
2023-08-11T11:44:47.430Z,33.62
2023-08-11T11:47:54.671Z,34.16
2023-08-11T11:51:00.494Z,33.82
2023-08-11T11:54:07.427Z,32.80
2023-08-11T11:57:12.024Z,33.66
2023-08-11T12:00:19.869Z,31.55
2023-08-11T12:03:25.165Z,33.33
2023-08-11T12:06:30.253Z,32.91
2023-08-11T12:09:34.581Z,30.92
2023-08-11T12:12:38.866Z,30.21
2023-08-11T12:15:42.358Z,30.39
2023-08-11T12:18:47.788Z,31.57
2023-08-11T12:21:52.571Z,28.79
2023-08-11T12:24:56.315Z,29.07
2023-08-11T12:28:02.832Z,32.45
2023-08-11T12:31:06.362Z,30.42
2023-08-11T12:34:11.286Z,29.08
2023-08-11T12:37:15.690Z,29.60
2023-08-11T12:40:19.975Z,29.34
2023-08-11T12:43:23.541Z,30.04
2023-08-11T12:46:27.655Z,30.64
2023-08-11T12:49:32.540Z,31.77
2023-08-11T12:52:36.341Z,33.13
2023-08-11T12:55:40.040Z,28.93
2023-08-11T12:58:43.996Z,30.31
2023-08-11T13:01:47.666Z,29.59
2023-08-11T13:04:52.579Z,30.18
2023-08-11T13:07:56.176Z,32.29
2023-08-11T13:10:59.817Z,31.21
2023-08-11T13:14:03.849Z,30.40
2023-08-11T13:17:07.522Z,31.31
2023-08-11T13:20:13.714Z,32.12
2023-08-11T13:23:17.177Z,31.33
2023-08-11T13:26:20.598Z,33.75
2023-08-11T13:29:24.915Z,32.21
2023-08-11T13:32:28.414Z,33.92
2023-08-11T13:35:33.297Z,34.02
2023-08-11T13:38:36.914Z,33.08
2023-08-11T13:41:40.919Z,35.60
2023-08-11T13:44:44.468Z,32.87
2023-08-11T13:47:47.968Z,32.58
2023-08-11T13:50:54.062Z,32.82
2023-08-11T13:53:57.540Z,31.93
2023-08-11T13:57:00.908Z,32.71
2023-08-11T14:00:07.380Z,33.74
2023-08-11T14:03:13.009Z,32.70
2023-08-11T14:06:17.755Z,33.55
2023-08-11T14:09:21.213Z,33.10
2023-08-11T14:12:25.679Z,33.37
2023-08-11T14:15:29.266Z,33.41
2023-08-11T14:18:32.718Z,31.36
2023-08-11T14:21:37.434Z,32.21
2023-08-11T14:24:41.128Z,31.53
2023-08-11T14:27:44.790Z,29.94
2023-08-11T14:30:48.162Z,30.80
2023-08-11T14:33:51.625Z,31.66
2023-08-11T14:36:56.542Z,30.38
2023-08-11T14:39:59.994Z,29.89
2023-08-11T14:43:03.467Z,29.76
2023-08-11T14:46:06.910Z,30.69
2023-08-11T14:49:10.508Z,30.62
2023-08-11T14:52:15.574Z,31.00
2023-08-11T14:55:19.209Z,31.94
2023-08-11T14:58:23.643Z,32.66
2023-08-11T15:01:27.416Z,31.96
2023-08-11T15:04:30.838Z,31.18
2023-08-11T15:07:35.707Z,31.81
2023-08-11T15:12:10.000Z,30.61
2023-08-11T15:15:13.784Z,31.89
2023-08-11T15:18:17.161Z,31.78
2023-08-11T15:21:21.481Z,31.66
2023-08-11T15:24:24.981Z,31.63
2023-08-11T15:27:30.413Z,32.76
2023-08-11T15:30:33.944Z,32.22
2023-08-11T15:33:37.353Z,32.01
2023-08-11T15:36:41.735Z,30.75
2023-08-11T15:39:45.229Z,31.96
2023-08-11T15:42:50.160Z,31.57
2023-08-11T15:45:53.573Z,32.73
2023-08-11T15:48:58.892Z,32.04
2023-08-11T15:52:04.814Z,32.51
2023-08-11T15:55:08.817Z,31.60
2023-08-11T15:58:13.566Z,31.40
2023-08-11T16:01:17.227Z,32.11
2023-08-11T16:04:21.102Z,31.60
2023-08-11T16:07:26.086Z,31.95
2023-08-11T16:10:33.937Z,32.25
2023-08-11T16:13:39.018Z,31.98
2023-08-11T16:16:44.859Z,32.16
2023-08-11T16:19:48.461Z,31.73
2023-08-11T16:22:53.116Z,33.13
2023-08-11T16:25:56.743Z,33.07
2023-08-11T16:29:01.495Z,33.98
2023-08-11T16:32:05.453Z,32.99
2023-08-11T16:35:10.326Z,33.49
2023-08-11T16:38:13.819Z,36.48
2023-08-11T16:41:17.198Z,37.10
2023-08-11T16:44:22.664Z,39.84
2023-08-11T16:47:27.958Z,39.47
2023-08-11T16:50:31.551Z,40.29
2023-08-11T16:53:34.941Z,41.04
2023-08-11T16:56:38.476Z,39.41
2023-08-11T16:59:43.471Z,39.90
2023-08-11T17:02:47.013Z,41.06
2023-08-11T17:05:50.531Z,41.56
2023-08-11T17:08:53.973Z,40.96
2023-08-11T17:11:57.412Z,40.94
2023-08-11T17:15:02.890Z,41.46
2023-08-11T17:18:07.011Z,41.03
2023-08-11T17:21:11.805Z,41.57
2023-08-11T17:24:15.223Z,43.06
2023-08-11T17:27:18.613Z,43.19
2023-08-11T17:30:23.628Z,44.67
2023-08-11T17:33:27.061Z,46.91
2023-08-11T17:36:30.665Z,49.90
2023-08-11T17:39:34.897Z,51.67
2023-08-11T17:42:38.296Z,51.45
2023-08-11T17:45:43.124Z,52.45
2023-08-11T17:48:46.605Z,51.68
2023-08-11T17:51:50.067Z,52.27
2023-08-11T17:54:53.599Z,52.05
2023-08-11T17:57:57.045Z,54.26
2023-08-11T18:01:02.172Z,54.01
2023-08-11T18:04:07.896Z,55.35
2023-08-11T18:07:11.848Z,55.99
2023-08-11T18:10:15.395Z,57.61
2023-08-11T18:13:19.012Z,56.09
2023-08-11T18:16:24.931Z,58.11
2023-08-11T18:19:28.654Z,57.54
2023-08-11T18:22:32.249Z,61.20
2023-08-11T18:25:36.517Z,60.96
2023-08-11T18:28:40.016Z,59.87
2023-08-11T18:31:49.975Z,61.27
2023-08-11T18:34:54.843Z,60.84
2023-08-11T18:38:00.258Z,61.72
2023-08-11T18:41:05.526Z,62.25
2023-08-11T18:44:12.241Z,63.86
2023-08-11T18:47:18.210Z,63.90
2023-08-11T18:50:22.330Z,63.40
2023-08-11T18:53:28.118Z,62.82
2023-08-11T18:56:31.942Z,62.64
2023-08-11T18:59:36.463Z,62.67
2023-08-11T19:02:44.161Z,61.83
2023-08-11T19:05:48.057Z,62.51
2023-08-11T19:08:51.541Z,61.85
2023-08-11T19:11:54.953Z,62.77
2023-08-11T19:14:58.447Z,65.01
2023-08-11T19:18:05.766Z,64.46
2023-08-11T19:21:09.392Z,65.71
2023-08-11T19:24:13.824Z,68.48
2023-08-11T19:27:18.576Z,66.24
2023-08-11T19:30:22.167Z,66.14
2023-08-11T19:33:27.156Z,63.74
2023-08-11T19:36:30.797Z,68.35
2023-08-11T19:39:34.532Z,64.47
2023-08-11T19:42:38.076Z,68.49
2023-08-11T19:45:48.541Z,69.12
2023-08-11T19:48:53.619Z,68.69
2023-08-11T19:51:57.336Z,68.71
2023-08-11T19:55:00.793Z,69.95
2023-08-11T19:58:05.095Z,70.36
2023-08-11T20:01:09.053Z,69.38
2023-08-11T20:04:16.855Z,70.31
2023-08-11T20:07:21.330Z,69.31
2023-08-11T20:10:24.711Z,69.53
2023-08-11T20:13:28.450Z,68.47
2023-08-11T20:16:32.113Z,69.25
2023-08-11T20:19:37.038Z,70.52
2023-08-11T20:22:40.619Z,70.49
2023-08-11T20:25:44.581Z,67.46
2023-08-11T20:28:48.271Z,68.89
2023-08-11T20:31:55.038Z,70.07
2023-08-11T20:35:00.010Z,72.38
2023-08-11T20:38:03.562Z,71.43
2023-08-11T20:41:07.282Z,73.02
2023-08-11T20:44:10.744Z,70.72
2023-08-11T20:47:14.232Z,72.74
2023-08-11T20:50:19.261Z,73.24
2023-08-11T20:53:26.228Z,73.12
2023-08-11T20:56:29.862Z,72.92
2023-08-11T20:59:34.009Z,71.98
2023-08-11T21:02:37.764Z,72.44
2023-08-11T21:05:43.639Z,73.49
2023-08-11T21:08:48.959Z,71.51
2023-08-11T21:11:53.322Z,72.21
2023-08-11T21:14:56.879Z,71.49
2023-08-11T21:18:00.540Z,71.87
2023-08-11T21:21:05.768Z,72.76
2023-08-11T21:24:09.547Z,74.27
2023-08-11T21:27:13.292Z,73.22
2023-08-11T21:30:17.299Z,73.78
2023-08-11T21:33:20.886Z,73.34
2023-08-11T21:36:25.751Z,74.03
2023-08-11T21:39:29.589Z,74.95
2023-08-11T21:42:33.282Z,73.88
2023-08-11T21:45:36.787Z,75.97
2023-08-11T21:48:40.554Z,75.41
2023-08-11T21:51:45.607Z,75.96
2023-08-11T21:54:49.061Z,75.76
2023-08-11T21:57:52.593Z,76.09
2023-08-11T22:00:56.414Z,76.00
2023-08-11T22:04:00.589Z,76.83
2023-08-11T22:07:06.676Z,76.67
2023-08-11T22:10:10.823Z,76.38
2023-08-11T22:13:14.686Z,76.47
2023-08-11T22:16:18.295Z,77.33
2023-08-11T22:19:21.849Z,77.76
2023-08-11T22:22:27.232Z,78.12
2023-08-11T22:25:30.711Z,76.72
2023-08-11T22:28:38.565Z,77.05
2023-08-11T22:31:44.380Z,76.46
2023-08-11T22:34:53.305Z,75.79
2023-08-11T22:37:58.975Z,75.45
2023-08-11T22:41:02.710Z,72.28
2023-08-11T22:44:08.534Z,70.66
2023-08-11T22:47:13.963Z,70.03
2023-08-11T22:50:17.512Z,70.16
2023-08-11T22:53:24.630Z,69.38
2023-08-11T22:56:28.317Z,68.61
2023-08-11T22:59:31.798Z,68.31
2023-08-11T23:02:35.311Z,67.30
2023-08-11T23:05:38.783Z,66.28
2023-08-11T23:08:43.573Z,66.38
2023-08-11T23:11:47.314Z,65.81
2023-08-11T23:14:52.041Z,66.71
2023-08-11T23:17:55.540Z,66.18
2023-08-11T23:20:58.976Z,67.97
2023-08-11T23:24:03.912Z,67.89
2023-08-11T23:27:07.798Z,67.40
2023-08-11T23:30:12.001Z,68.35
2023-08-11T23:33:16.554Z,68.29
2023-08-11T23:36:20.015Z,67.72
2023-08-11T23:39:26.150Z,67.60
2023-08-11T23:42:31.480Z,68.11
2023-08-11T23:45:37.005Z,68.86
2023-08-11T23:48:40.787Z,68.18
2023-08-11T23:51:45.645Z,67.41
2023-08-11T23:54:54.451Z,68.41
2023-08-11T23:57:58.030Z,68.61
